createdAt,value
2023-05-10T00:00:40.412Z,91921.31
2023-05-10T00:03:10.353Z,91917.66
2023-05-10T00:05:38.867Z,91924.31
2023-05-10T00:08:07.451Z,91922.66
2023-05-10T00:10:35.891Z,91921.13
2023-05-10T00:13:04.447Z,91926.75
2023-05-10T00:15:32.934Z,91923.53
2023-05-10T00:18:01.462Z,91908.91
2023-05-10T00:20:31.368Z,91918.59
2023-05-10T00:22:59.818Z,91924.38
2023-05-10T00:25:28.279Z,91930.28
2023-05-10T00:27:58.323Z,91922.63
2023-05-10T00:30:27.128Z,91937.63
2023-05-10T00:32:55.677Z,91934.91
2023-05-10T00:35:24.241Z,91932.16
2023-05-10T00:37:54.407Z,91928.44
2023-05-10T00:40:22.969Z,91930.44
2023-05-10T00:42:51.859Z,91916.09
2023-05-10T00:45:20.606Z,91926.91
2023-05-10T00:47:49.262Z,91924.16
2023-05-10T00:50:18.258Z,91927.53
2023-05-10T00:52:46.937Z,91928.41
2023-05-10T00:55:16.921Z,91944.28
2023-05-10T00:57:45.709Z,91944.66
2023-05-10T01:00:19.002Z,91934.03
2023-05-10T01:02:48.305Z,91938.03
2023-05-10T01:05:16.932Z,91928.19
2023-05-10T01:07:45.477Z,91939.72
2023-05-10T01:10:14.214Z,91940.47
2023-05-10T01:12:47.885Z,91939.34
2023-05-10T01:15:18.362Z,91932.31
2023-05-10T01:17:49.032Z,91942.06
2023-05-10T01:20:18.435Z,91939.97
2023-05-10T01:23:37.116Z,91934.75
2023-05-10T01:26:42.003Z,91940.34
2023-05-10T01:30:21.745Z,91947.03
2023-05-10T01:32:55.784Z,91943.38
2023-05-10T01:35:34.169Z,91951.31
2023-05-10T01:38:10.626Z,91948.78
2023-05-10T01:40:50.878Z,91953.09
2023-05-10T01:43:25.488Z,91954.78
2023-05-10T01:46:05.677Z,91954.75
2023-05-10T01:48:36.106Z,91967.91
2023-05-10T01:51:05.553Z,91964.91
2023-05-10T01:53:36.553Z,91967.19
2023-05-10T01:56:06.932Z,91969.81
2023-05-10T01:58:38.766Z,91962.44
2023-05-10T02:01:09.613Z,91975.50
2023-05-10T02:03:41.317Z,91983.09
2023-05-10T02:06:11.666Z,91977.34
2023-05-10T02:08:42.543Z,91977.28
2023-05-10T02:11:13.683Z,91974.41
2023-05-10T02:13:44.708Z,91980.22
2023-05-10T02:16:14.611Z,91988.28
2023-05-10T02:18:45.068Z,91992.22
2023-05-10T02:21:15.550Z,91991.34
2023-05-10T02:23:45.738Z,91983.69
2023-05-10T02:26:15.247Z,91994.75
2023-05-10T02:28:45.936Z,91987.56
2023-05-10T02:31:15.765Z,91990.16
2023-05-10T02:33:47.018Z,91986.44
2023-05-10T02:36:15.856Z,91984.09
2023-05-10T02:38:45.734Z,91997.66
2023-05-10T02:41:14.799Z,92006.72
2023-05-10T02:43:44.370Z,92003.59
2023-05-10T02:46:13.148Z,92003.22
2023-05-10T02:48:42.474Z,92002.41
2023-05-10T02:51:18.836Z,91996.66
2023-05-10T02:53:49.353Z,92004.41
2023-05-10T02:56:26.304Z,91994.75
2023-05-10T02:58:55.153Z,91988.00
2023-05-10T03:01:23.777Z,91988.94
2023-05-10T03:03:52.277Z,91984.66
2023-05-10T03:06:22.233Z,91997.50
2023-05-10T03:08:51.027Z,91992.50
2023-05-10T03:11:42.173Z,91994.44
2023-05-10T03:14:22.047Z,91992.22
2023-05-10T03:17:01.309Z,91989.84
2023-05-10T03:19:39.147Z,91991.78
2023-05-10T03:22:13.385Z,91986.13
2023-05-10T03:24:43.728Z,91982.97
2023-05-10T03:27:13.510Z,91986.47
2023-05-10T03:29:42.638Z,91993.19
2023-05-10T03:32:11.189Z,91993.94
2023-05-10T03:34:44.521Z,91991.50
2023-05-10T03:37:14.441Z,92002.09
2023-05-10T03:39:43.204Z,91995.34
2023-05-10T03:42:12.923Z,91999.16
2023-05-10T03:44:41.802Z,91992.41
2023-05-10T03:47:10.658Z,91996.50
2023-05-10T03:49:39.207Z,91992.84
2023-05-10T03:52:07.687Z,91992.41
2023-05-10T03:54:37.586Z,91995.59
2023-05-10T03:57:06.152Z,91989.97
2023-05-10T03:59:34.632Z,92004.91
2023-05-10T04:02:03.176Z,91994.91
2023-05-10T04:04:31.750Z,92001.84
2023-05-10T04:07:00.206Z,92004.81
2023-05-10T04:09:28.737Z,91999.47
2023-05-10T04:11:58.606Z,91996.94
2023-05-10T04:14:27.068Z,92003.41
2023-05-10T04:16:56.351Z,92011.41
2023-05-10T04:19:25.286Z,92021.56
2023-05-10T04:21:53.746Z,92011.50
2023-05-10T04:24:22.464Z,92017.81
2023-05-10T04:26:50.935Z,92012.69
2023-05-10T04:29:20.754Z,92015.44
2023-05-10T04:31:49.906Z,92020.47
2023-05-10T04:34:18.517Z,92020.84
2023-05-10T04:36:46.986Z,92007.16
2023-05-10T04:39:15.867Z,92014.84
2023-05-10T04:41:44.357Z,92012.94
2023-05-10T04:44:12.853Z,92015.56
2023-05-10T04:46:43.436Z,92011.34
2023-05-10T04:49:11.959Z,92007.69
2023-05-10T04:51:40.590Z,92018.78
2023-05-10T04:54:09.364Z,92022.09
2023-05-10T04:56:37.844Z,92023.28
2023-05-10T04:59:06.323Z,92018.03
2023-05-10T05:01:35.014Z,92026.56
2023-05-10T05:04:05.281Z,92020.75
2023-05-10T05:06:34.020Z,92026.97
2023-05-10T05:09:02.484Z,92022.72
2023-05-10T05:11:31.193Z,92023.50
2023-05-10T05:14:00.650Z,92033.34
2023-05-10T05:16:32.627Z,92034.63
2023-05-10T05:19:02.179Z,92043.19
2023-05-10T05:21:33.197Z,92039.53
2023-05-10T05:24:02.007Z,92044.56
2023-05-10T05:26:30.505Z,92048.75
2023-05-10T05:28:58.957Z,92047.66
2023-05-10T05:31:27.422Z,92048.28
2023-05-10T05:33:56.302Z,92059.66
2023-05-10T05:36:24.823Z,92052.88
2023-05-10T05:38:54.638Z,92057.13
2023-05-10T05:41:23.618Z,92055.69
2023-05-10T05:43:52.096Z,92058.28
2023-05-10T05:46:20.961Z,92063.22
2023-05-10T05:48:49.526Z,92061.88
2023-05-10T05:51:18.208Z,92068.78
2023-05-10T05:53:46.692Z,92065.16
2023-05-10T05:56:16.558Z,92058.50
2023-05-10T05:58:45.496Z,92071.56
2023-05-10T06:01:15.264Z,92064.88
2023-05-10T06:03:44.052Z,92068.50
2023-05-10T06:06:13.554Z,92069.44
2023-05-10T06:08:42.030Z,92069.44
2023-05-10T06:11:10.492Z,92067.91
2023-05-10T06:13:40.394Z,92063.88
2023-05-10T06:16:09.413Z,92070.06
2023-05-10T06:18:38.152Z,92075.66
2023-05-10T06:21:06.904Z,92073.03
2023-05-10T06:23:35.894Z,92083.09
2023-05-10T06:26:04.370Z,92081.94
2023-05-10T06:28:34.578Z,92086.56
2023-05-10T06:31:06.024Z,92087.91
2023-05-10T06:33:34.538Z,92079.28
2023-05-10T06:36:03.054Z,92081.63
2023-05-10T06:38:31.628Z,92066.44
2023-05-10T06:41:00.069Z,92084.81
2023-05-10T06:43:29.741Z,92094.38
2023-05-10T06:45:58.391Z,92087.03
2023-05-10T06:48:28.611Z,92086.34
2023-05-10T06:50:57.066Z,92083.59
2023-05-10T06:53:25.548Z,92099.72
2023-05-10T06:55:54.023Z,92103.63
2023-05-10T06:58:22.467Z,92108.41
2023-05-10T07:00:51.820Z,92113.97
2023-05-10T07:03:20.374Z,92108.81
2023-05-10T07:05:51.072Z,92113.59
2023-05-10T07:08:19.766Z,92107.50
2023-05-10T07:10:48.202Z,92107.03
2023-05-10T07:13:16.800Z,92109.81
2023-05-10T07:15:45.680Z,92112.06
2023-05-10T07:18:14.136Z,92107.47
2023-05-10T07:20:42.614Z,92103.34
2023-05-10T07:23:12.663Z,92098.16
2023-05-10T07:25:41.094Z,92098.22
2023-05-10T07:28:09.556Z,92101.25
2023-05-10T07:30:38.217Z,92099.66
2023-05-10T07:33:06.755Z,92102.50
2023-05-10T07:35:35.217Z,92104.91
2023-05-10T07:38:03.974Z,92113.25
2023-05-10T07:40:34.225Z,92113.03
2023-05-10T07:43:03.405Z,92123.88
2023-05-10T07:45:31.942Z,92121.34
2023-05-10T07:48:00.567Z,92119.91
2023-05-10T07:50:29.087Z,92122.69
2023-05-10T07:52:57.642Z,92123.69
2023-05-10T07:55:26.189Z,92120.66
2023-05-10T07:57:56.069Z,92122.28
2023-05-10T08:00:24.557Z,92123.97
2023-05-10T08:02:53.060Z,92123.22
2023-05-10T08:05:21.529Z,92128.69
2023-05-10T08:07:50.075Z,92121.69
2023-05-10T08:10:18.643Z,92125.47
2023-05-10T08:12:47.585Z,92126.75
2023-05-10T08:15:17.630Z,92120.13
2023-05-10T08:17:46.799Z,92122.88
2023-05-10T08:20:33.609Z,92112.06
2023-05-10T08:23:20.632Z,92121.22
2023-05-10T08:29:16.613Z,92126.22
2023-05-10T08:31:47.281Z,92124.91
2023-05-10T08:34:16.072Z,92125.31
2023-05-10T08:36:45.168Z,92126.31
2023-05-10T08:39:26.830Z,92126.81
2023-05-10T08:42:04.227Z,92126.50
2023-05-10T08:44:34.904Z,92127.03
2023-05-10T08:47:08.710Z,92136.19
2023-05-10T08:49:37.546Z,92133.59
2023-05-10T08:52:08.427Z,92143.03
2023-05-10T08:54:37.274Z,92143.22
2023-05-10T08:57:05.857Z,92147.22
2023-05-10T08:59:34.455Z,92143.66
2023-05-10T09:02:06.513Z,92150.16
2023-05-10T09:04:35.280Z,92144.16
2023-05-10T09:07:03.997Z,92140.97
2023-05-10T09:09:33.418Z,92150.09
2023-05-10T09:12:02.144Z,92146.41
2023-05-10T09:14:31.276Z,92149.22
2023-05-10T09:16:59.902Z,92146.34
2023-05-10T09:19:30.621Z,92137.94
2023-05-10T09:22:01.238Z,92150.09
2023-05-10T09:24:32.378Z,92137.25
2023-05-10T09:27:01.063Z,92146.28
2023-05-10T09:29:41.699Z,92146.91
2023-05-10T09:32:10.198Z,92148.94
2023-05-10T09:34:42.186Z,92150.69
2023-05-10T09:37:10.733Z,92150.31
2023-05-10T09:39:40.029Z,92148.16
2023-05-10T09:42:10.013Z,92148.31
2023-05-10T09:44:39.146Z,92152.34
2023-05-10T09:47:07.670Z,92148.84
2023-05-10T09:49:36.637Z,92150.28
2023-05-10T09:52:08.501Z,92150.50
2023-05-10T09:54:37.418Z,92147.88
2023-05-10T09:57:06.076Z,92147.25
2023-05-10T09:59:37.287Z,92157.69
2023-05-10T10:02:06.180Z,92169.94
2023-05-10T10:04:34.937Z,92160.81
2023-05-10T10:07:05.606Z,92160.63
2023-05-10T10:09:36.604Z,92168.69
2023-05-10T10:12:06.655Z,92173.22
2023-05-10T10:14:36.485Z,92174.69
2023-05-10T10:17:08.778Z,92184.63
2023-05-10T10:19:38.484Z,92197.53
2023-05-10T10:22:07.615Z,92192.91
2023-05-10T10:24:37.501Z,92200.25
2023-05-10T10:27:22.147Z,92194.06
2023-05-10T10:30:02.897Z,92204.84
2023-05-10T10:32:44.888Z,92201.56
2023-05-10T10:35:13.703Z,92199.72
2023-05-10T10:37:47.297Z,92194.41
2023-05-10T10:40:34.596Z,92195.28
2023-05-10T10:43:26.482Z,92193.19
2023-05-10T10:46:15.833Z,92198.13
2023-05-10T10:48:50.421Z,92202.16
2023-05-10T10:51:19.158Z,92194.22
2023-05-10T10:53:50.605Z,92184.19
2023-05-10T10:56:25.496Z,92186.41
2023-05-10T10:58:57.093Z,92181.84
2023-05-10T11:01:25.767Z,92192.34
2023-05-10T11:04:20.304Z,92187.41
2023-05-10T11:06:48.932Z,92187.41
2023-05-10T11:09:17.390Z,92181.19
2023-05-10T11:11:56.174Z,92188.41
2023-05-10T11:14:26.736Z,92181.75
2023-05-10T11:16:55.571Z,92180.03
2023-05-10T11:19:24.100Z,92173.34
2023-05-10T11:22:14.794Z,92177.56
2023-05-10T11:25:00.229Z,92171.94
2023-05-10T11:27:29.040Z,92181.31
2023-05-10T11:29:58.925Z,92175.56
2023-05-10T11:32:27.579Z,92183.31
2023-05-10T11:34:56.159Z,92178.97
2023-05-10T11:37:24.603Z,92170.41
2023-05-10T11:39:53.051Z,92176.38
2023-05-10T11:42:21.568Z,92187.00
2023-05-10T11:44:50.293Z,92176.66
2023-05-10T11:47:20.170Z,92182.25
2023-05-10T11:49:51.718Z,92184.94
2023-05-10T11:52:21.791Z,92178.06
2023-05-10T11:54:54.744Z,92176.41
2023-05-10T11:57:28.669Z,92188.38
2023-05-10T11:59:58.904Z,92175.25
2023-05-10T12:02:28.866Z,92181.97
2023-05-10T12:04:58.287Z,92174.84
2023-05-10T12:07:28.801Z,92170.34
2023-05-10T12:10:10.009Z,92177.00
2023-05-10T12:12:43.938Z,92171.91
2023-05-10T12:15:20.585Z,92173.34
2023-05-10T12:17:51.645Z,92175.75
2023-05-10T12:20:23.001Z,92172.13
2023-05-10T12:22:53.911Z,92176.28
2023-05-10T12:25:24.794Z,92168.72
2023-05-10T12:27:58.314Z,92166.19
2023-05-10T12:30:28.522Z,92172.19
2023-05-10T12:33:04.494Z,92176.09
2023-05-10T12:35:33.870Z,92176.22
2023-05-10T12:38:02.384Z,92172.22
2023-05-10T12:40:31.233Z,92183.50
2023-05-10T12:42:59.793Z,92178.47
2023-05-10T12:45:28.243Z,92176.09
2023-05-10T12:47:58.095Z,92177.69
2023-05-10T12:50:26.668Z,92176.84
2023-05-10T12:52:55.359Z,92188.34
2023-05-10T12:55:23.877Z,92185.19
2023-05-10T12:57:52.364Z,92186.09
2023-05-10T13:00:21.595Z,92182.69
2023-05-10T13:02:50.359Z,92177.03
2023-05-10T13:05:20.302Z,92184.50
2023-05-10T13:07:48.765Z,92174.38
2023-05-10T13:10:18.490Z,92165.16
2023-05-10T13:12:47.144Z,92171.19
2023-05-10T13:15:15.591Z,92166.16
2023-05-10T13:17:44.659Z,92173.81
2023-05-10T13:20:13.966Z,92163.63
2023-05-10T13:22:45.417Z,92165.59
2023-05-10T13:25:14.383Z,92170.66
2023-05-10T13:27:43.225Z,92185.25
2023-05-10T13:30:12.885Z,92185.81
2023-05-10T13:32:41.451Z,92200.13
2023-05-10T13:35:11.183Z,92202.38
2023-05-10T13:37:39.694Z,92232.31
2023-05-10T13:40:10.970Z,92213.38
2023-05-10T13:42:39.854Z,92216.06
2023-05-10T13:45:09.872Z,92218.13
2023-05-10T13:47:38.508Z,92207.41
2023-05-10T13:50:08.856Z,92211.47
2023-05-10T13:52:37.344Z,92211.69
2023-05-10T13:55:06.905Z,92206.44
2023-05-10T13:57:38.019Z,92204.72
2023-05-10T14:00:08.722Z,92194.78
2023-05-10T14:02:37.330Z,92200.97
2023-05-10T14:05:07.769Z,92195.66
2023-05-10T14:07:36.543Z,92187.28
2023-05-10T14:10:05.701Z,92182.94
2023-05-10T14:12:34.213Z,92200.13
2023-05-10T14:15:06.788Z,92194.94
2023-05-10T14:17:35.364Z,92187.44
2023-05-10T14:20:04.797Z,92178.97
2023-05-10T14:22:33.575Z,92181.94
2023-05-10T14:25:03.333Z,92188.16
2023-05-10T14:27:31.832Z,92172.47
2023-05-10T14:30:00.575Z,92178.13
2023-05-10T14:32:30.482Z,92167.78
2023-05-10T14:34:58.983Z,92169.94
2023-05-10T14:37:27.844Z,92173.47
2023-05-10T14:39:56.395Z,92166.19
2023-05-10T14:42:24.874Z,92165.59
2023-05-10T14:44:53.339Z,92159.06
2023-05-10T14:47:22.061Z,92166.25
2023-05-10T14:49:51.910Z,92177.78
2023-05-10T14:52:20.602Z,92169.59
2023-05-10T14:54:49.054Z,92174.94
2023-05-10T14:57:17.527Z,92174.09
2023-05-10T14:59:45.999Z,92165.28
2023-05-10T15:02:14.891Z,92180.41
2023-05-10T15:04:43.995Z,92178.69
2023-05-10T15:07:15.820Z,92174.09
2023-05-10T15:09:44.512Z,92187.22
2023-05-10T15:12:13.024Z,92175.72
2023-05-10T15:14:41.456Z,92168.75
2023-05-10T15:17:10.012Z,92171.03
2023-05-10T15:19:38.582Z,92181.06
2023-05-10T15:22:07.568Z,92179.00
2023-05-10T15:24:37.399Z,92178.13
2023-05-10T15:27:06.207Z,92177.03
2023-05-10T15:29:35.289Z,92172.38
2023-05-10T15:32:04.516Z,92173.66
2023-05-10T15:34:34.850Z,92176.66
2023-05-10T15:37:04.287Z,92187.38
2023-05-10T15:39:32.790Z,92189.25
2023-05-10T15:42:02.679Z,92182.91
2023-05-10T15:44:31.381Z,92179.31
2023-05-10T15:46:59.974Z,92187.25
2023-05-10T15:49:28.570Z,92183.28
2023-05-10T15:51:57.045Z,92197.25
2023-05-10T15:54:25.742Z,92198.50
2023-05-10T15:56:55.017Z,92198.00
2023-05-10T15:59:24.903Z,92195.31
2023-05-10T16:01:53.835Z,92195.44
2023-05-10T16:04:22.317Z,92192.41
2023-05-10T16:06:51.054Z,92189.16
2023-05-10T16:09:19.504Z,92195.44
2023-05-10T16:11:48.368Z,92190.00
2023-05-10T16:14:17.375Z,92193.06
2023-05-10T16:16:47.673Z,92198.59
2023-05-10T16:19:16.914Z,92191.88
2023-05-10T16:21:45.413Z,92201.09
2023-05-10T16:24:14.237Z,92205.31
2023-05-10T16:26:42.750Z,92205.63
2023-05-10T16:29:11.920Z,92206.03
2023-05-10T16:31:40.656Z,92204.09
2023-05-10T16:34:10.486Z,92206.50
2023-05-10T16:36:39.028Z,92196.72
2023-05-10T16:39:09.313Z,92198.38
2023-05-10T16:41:37.786Z,92200.13
2023-05-10T16:44:06.264Z,92205.56
2023-05-10T16:46:35.048Z,92202.50
2023-05-10T16:49:03.868Z,92194.38
2023-05-10T16:51:33.724Z,92189.31
2023-05-10T16:54:02.171Z,92179.50
2023-05-10T16:56:30.912Z,92182.94
2023-05-10T16:58:59.408Z,92185.59
2023-05-10T17:01:27.975Z,92185.53
2023-05-10T17:03:56.958Z,92192.28
2023-05-10T17:06:25.824Z,92209.38
2023-05-10T17:08:55.736Z,92201.63
2023-05-10T17:11:24.226Z,92208.69
2023-05-10T17:13:53.080Z,92219.06
2023-05-10T17:16:22.387Z,92209.53
2023-05-10T17:18:50.959Z,92214.94
2023-05-10T17:21:19.685Z,92215.81
2023-05-10T17:23:48.168Z,92226.03
2023-05-10T17:26:18.018Z,92227.13
2023-05-10T17:28:46.538Z,92225.91
2023-05-10T17:31:15.326Z,92230.84
2023-05-10T17:33:43.898Z,92229.53
2023-05-10T17:36:12.442Z,92234.03
2023-05-10T17:38:41.221Z,92237.72
2023-05-10T17:41:09.678Z,92242.53
2023-05-10T17:43:39.730Z,92239.53
2023-05-10T17:46:08.245Z,92243.03
2023-05-10T17:48:37.060Z,92248.16
2023-05-10T17:51:06.521Z,92245.25
2023-05-10T17:53:35.769Z,92244.91
2023-05-10T17:56:04.288Z,92238.84
2023-05-10T17:58:33.493Z,92248.41
2023-05-10T18:01:04.058Z,92234.00
2023-05-10T18:03:33.032Z,92235.78
2023-05-10T18:06:02.216Z,92236.59
2023-05-10T18:08:30.810Z,92239.84
2023-05-10T18:10:59.388Z,92238.34
2023-05-10T18:13:27.924Z,92243.69
2023-05-10T18:15:56.469Z,92243.25
2023-05-10T18:18:26.957Z,92239.81
2023-05-10T18:20:57.737Z,92233.03
2023-05-10T18:23:26.690Z,92235.28
2023-05-10T18:25:55.248Z,92236.97
2023-05-10T18:28:24.594Z,92236.63
2023-05-10T18:30:53.197Z,92239.03
2023-05-10T18:33:21.900Z,92239.16
2023-05-10T18:35:51.782Z,92239.63
2023-05-10T18:38:20.617Z,92237.34
2023-05-10T18:40:49.356Z,92233.91
2023-05-10T18:43:17.803Z,92236.50
2023-05-10T18:45:46.551Z,92237.91
2023-05-10T18:48:15.004Z,92240.16
2023-05-10T18:50:43.475Z,92245.72
2023-05-10T18:53:13.319Z,92252.66
2023-05-10T18:55:41.769Z,92245.63
2023-05-10T18:58:10.279Z,92253.44
2023-05-10T19:00:38.963Z,92243.78
2023-05-10T19:03:07.703Z,92246.91
2023-05-10T19:05:36.531Z,92243.59
2023-05-10T19:08:05.311Z,92250.38
2023-05-10T19:10:35.167Z,92253.91
2023-05-10T19:13:03.625Z,92253.69
2023-05-10T19:15:32.090Z,92256.75
2023-05-10T19:18:00.640Z,92256.56
2023-05-10T19:20:30.274Z,92259.09
2023-05-10T19:23:09.609Z,92268.69
2023-05-10T19:25:42.538Z,92275.81
2023-05-10T19:28:11.700Z,92281.31
2023-05-10T19:30:40.446Z,92279.41
2023-05-10T19:33:10.224Z,92285.09
2023-05-10T19:35:38.723Z,92278.50
2023-05-10T19:38:07.260Z,92282.38
2023-05-10T19:40:36.274Z,92283.94
2023-05-10T19:43:06.368Z,92284.72
2023-05-10T19:45:37.132Z,92288.19
2023-05-10T19:48:06.228Z,92285.06
2023-05-10T19:50:34.793Z,92279.69
2023-05-10T19:53:03.502Z,92275.13
2023-05-10T19:55:33.880Z,92270.22
2023-05-10T19:58:02.424Z,92269.81
2023-05-10T20:00:33.028Z,92271.00
2023-05-10T20:03:01.727Z,92278.97
2023-05-10T20:05:30.556Z,92276.72
2023-05-10T20:07:59.033Z,92285.13
2023-05-10T20:10:27.755Z,92283.72
2023-05-10T20:12:56.314Z,92279.94
2023-05-10T20:15:25.156Z,92277.63
2023-05-10T20:17:55.193Z,92286.06
2023-05-10T20:20:24.079Z,92284.59
2023-05-10T20:22:52.758Z,92286.88
2023-05-10T20:25:21.201Z,92282.63
2023-05-10T20:27:51.108Z,92286.03
2023-05-10T20:30:19.987Z,92284.50
2023-05-10T20:32:48.980Z,92279.16
2023-05-10T20:35:19.104Z,92284.53
2023-05-10T20:37:48.478Z,92288.69
2023-05-10T20:40:17.183Z,92283.31
2023-05-10T20:42:45.942Z,92286.66
2023-05-10T20:45:14.642Z,92282.53
2023-05-10T20:47:43.175Z,92281.75
2023-05-10T20:50:12.566Z,92280.97
2023-05-10T20:52:42.409Z,92278.31
2023-05-10T20:55:11.423Z,92284.88
2023-05-10T20:57:40.112Z,92288.25
2023-05-10T21:00:10.593Z,92275.19
2023-05-10T21:02:39.078Z,92280.53
2023-05-10T21:05:09.041Z,92288.28
2023-05-10T21:07:38.082Z,92272.44
2023-05-10T21:10:10.014Z,92275.22
2023-05-10T21:12:38.957Z,92266.31
2023-05-10T21:15:09.180Z,92262.88
2023-05-10T21:17:37.911Z,92267.53
2023-05-10T21:20:08.066Z,92262.91
2023-05-10T21:22:36.531Z,92259.84
2023-05-10T21:25:05.417Z,92259.06
2023-05-10T21:27:35.668Z,92263.78
2023-05-10T21:30:04.189Z,92265.28
2023-05-10T21:32:32.964Z,92267.16
2023-05-10T21:35:01.776Z,92263.31
2023-05-10T21:37:30.264Z,92259.09
2023-05-10T21:39:58.838Z,92265.25
2023-05-10T21:42:27.373Z,92265.59
2023-05-10T21:44:57.267Z,92264.13
2023-05-10T21:47:26.076Z,92262.59
2023-05-10T21:49:54.531Z,92260.66
2023-05-10T21:52:23.194Z,92257.56
2023-05-10T21:54:51.679Z,92256.41
2023-05-10T21:57:21.531Z,92256.06
2023-05-10T21:59:50.290Z,92261.44
2023-05-10T22:02:20.196Z,92241.44
2023-05-10T22:04:48.951Z,92250.66
2023-05-10T22:07:17.805Z,92252.19
2023-05-10T22:09:46.250Z,92254.91
2023-05-10T22:12:14.768Z,92253.38
2023-05-10T22:14:43.210Z,92251.84
2023-05-10T22:17:11.899Z,92249.91
2023-05-10T22:19:42.009Z,92249.97
2023-05-10T22:22:10.575Z,92244.63
2023-05-10T22:24:39.054Z,92253.47
2023-05-10T22:27:08.791Z,92247.72
2023-05-10T22:29:37.274Z,92247.72
2023-05-10T22:32:06.655Z,92247.00
2023-05-10T22:34:35.592Z,92250.03
2023-05-10T22:37:05.719Z,92245.41
2023-05-10T22:39:35.088Z,92259.28
2023-05-10T22:42:03.768Z,92248.16
2023-05-10T22:44:32.256Z,92249.25
2023-05-10T22:47:00.742Z,92250.78
2023-05-10T22:49:29.448Z,92240.00
2023-05-10T22:51:57.920Z,92246.56
2023-05-10T22:54:27.877Z,92246.94
2023-05-10T22:56:57.379Z,92250.00
2023-05-10T22:59:25.941Z,92241.56
2023-05-10T23:01:55.264Z,92247.38
2023-05-10T23:04:24.037Z,92248.09
2023-05-10T23:06:53.645Z,92248.06
2023-05-10T23:09:22.362Z,92240.38
2023-05-10T23:11:52.201Z,92246.94
2023-05-10T23:14:20.682Z,92246.59
2023-05-10T23:16:49.184Z,92248.50
2023-05-10T23:19:17.682Z,92244.63
2023-05-10T23:21:46.169Z,92246.94
2023-05-10T23:24:14.758Z,92246.91
2023-05-10T23:26:45.430Z,92239.22
2023-05-10T23:29:15.298Z,92250.78
2023-05-10T23:31:45.930Z,92245.41
2023-05-10T23:34:14.401Z,92246.16
2023-05-10T23:36:42.852Z,92241.84
2023-05-10T23:39:11.923Z,92243.47
2023-05-10T23:41:40.603Z,92241.53
2023-05-10T23:44:09.072Z,92244.56
2023-05-10T23:46:38.968Z,92238.47
2023-05-10T23:49:07.436Z,92238.53
2023-05-10T23:51:36.124Z,92240.00
2023-05-10T23:54:04.947Z,92233.16
2023-05-10T23:56:33.398Z,92242.31
2023-05-10T23:59:01.920Z,92235.00
